createdAt,value
2022-10-26T00:00:41.760Z,100743.72
2022-10-26T00:05:44.176Z,100732.50
2022-10-26T00:10:46.277Z,100742.41
2022-10-26T00:15:48.279Z,100737.84
2022-10-26T00:20:50.597Z,100730.69
2022-10-26T00:25:59.129Z,100732.88
2022-10-26T00:31:06.825Z,100727.25
2022-10-26T00:36:10.302Z,100721.34
2022-10-26T00:41:16.598Z,100716.78
2022-10-26T00:46:26.689Z,100722.19
2022-10-26T00:51:35.787Z,100713.97
2022-10-26T00:56:38.003Z,100706.94
2022-10-26T01:01:43.526Z,100706.94
2022-10-26T01:06:46.887Z,100701.50
2022-10-26T01:11:48.830Z,100696.44
2022-10-26T01:16:50.734Z,100692.56
2022-10-26T01:22:02.747Z,100683.03
2022-10-26T01:27:25.411Z,100677.69
2022-10-26T01:32:56.380Z,100671.59
2022-10-26T01:38:08.799Z,100672.56
2022-10-26T01:43:14.560Z,100667.38
2022-10-26T01:48:19.537Z,100654.53
2022-10-26T01:53:21.541Z,100652.16
2022-10-26T01:58:37.451Z,100652.06
2022-10-26T02:04:06.761Z,100646.72
2022-10-26T02:09:12.045Z,100636.97
2022-10-26T02:14:18.687Z,100633.47
2022-10-26T02:19:34.024Z,100632.13
2022-10-26T02:24:37.078Z,100637.38
2022-10-26T02:29:39.965Z,100622.03
2022-10-26T02:34:46.273Z,100622.63
2022-10-26T02:39:51.673Z,100620.72
2022-10-26T02:45:00.518Z,100622.63
2022-10-26T02:50:02.787Z,100620.44
2022-10-26T02:55:10.350Z,100616.53
2022-10-26T03:00:15.656Z,100608.22
2022-10-26T03:05:23.501Z,100608.22
2022-10-26T03:10:25.972Z,100610.03
2022-10-26T03:15:27.869Z,100603.94
2022-10-26T03:20:29.804Z,100604.72
2022-10-26T03:25:31.739Z,100603.94
2022-10-26T03:30:33.803Z,100611.66
2022-10-26T03:35:35.617Z,100603.81
2022-10-26T03:40:37.376Z,100600.50
2022-10-26T03:45:39.303Z,100603.19
2022-10-26T03:50:41.413Z,100600.69
2022-10-26T03:55:46.353Z,100599.63
2022-10-26T04:00:48.575Z,100591.75
2022-10-26T04:05:50.440Z,100596.78
2022-10-26T04:10:52.341Z,100587.34
2022-10-26T04:15:54.472Z,100592.91
2022-10-26T04:20:56.289Z,100590.41
2022-10-26T04:25:58.092Z,100597.72
2022-10-26T04:30:59.889Z,100606.78
2022-10-26T04:36:01.706Z,100594.88
2022-10-26T04:41:03.959Z,100592.00
2022-10-26T04:46:05.850Z,100594.28
2022-10-26T04:51:07.668Z,100597.09
2022-10-26T04:56:10.068Z,100601.16
2022-10-26T05:01:12.607Z,100601.16
2022-10-26T05:06:14.365Z,100601.38
2022-10-26T05:11:16.252Z,100607.00
2022-10-26T05:16:18.411Z,100607.94
2022-10-26T05:21:20.182Z,100594.41
2022-10-26T05:26:23.682Z,100610.44
2022-10-26T05:31:25.677Z,100609.66
2022-10-26T05:36:27.681Z,100614.41
2022-10-26T05:41:29.523Z,100625.47
2022-10-26T05:46:31.378Z,100627.47
2022-10-26T05:51:35.341Z,100631.78
2022-10-26T05:56:39.721Z,100634.63
2022-10-26T06:01:52.312Z,100630.13
2022-10-26T06:06:55.483Z,100640.72
2022-10-26T06:11:57.590Z,100645.47
2022-10-26T06:17:29.077Z,100632.31
2022-10-26T06:23:00.701Z,100646.41
2022-10-26T06:28:21.769Z,100656.41
2022-10-26T06:33:29.516Z,100664.16
2022-10-26T06:38:34.768Z,100676.25
2022-10-26T06:43:36.899Z,100689.13
2022-10-26T06:48:52.127Z,100678.53
2022-10-26T06:54:03.097Z,100673.78
2022-10-26T06:59:14.215Z,100669.28
2022-10-26T07:04:15.966Z,100667.22
2022-10-26T07:09:17.563Z,100657.47
2022-10-26T07:14:19.310Z,100661.00
2022-10-26T07:19:21.041Z,100671.19
2022-10-26T07:24:23.789Z,100697.38
2022-10-26T07:29:27.395Z,100701.19
2022-10-26T07:34:29.328Z,100709.66
2022-10-26T07:39:33.050Z,100715.00
2022-10-26T07:44:34.876Z,100714.81
2022-10-26T07:49:36.862Z,100717.78
2022-10-26T07:54:38.727Z,100728.75
2022-10-26T07:59:40.463Z,100727.81
2022-10-26T08:04:42.235Z,100772.13
2022-10-26T08:09:44.021Z,100752.19
2022-10-26T08:14:46.536Z,100766.50
2022-10-26T08:19:49.111Z,100763.75
2022-10-26T08:24:50.824Z,100775.66
2022-10-26T08:29:52.683Z,100779.09
2022-10-26T08:34:54.601Z,100783.47
2022-10-26T08:39:57.532Z,100799.28
2022-10-26T08:45:07.925Z,100806.25
2022-10-26T08:50:18.922Z,100808.34
2022-10-26T08:55:33.480Z,100806.72
2022-10-26T09:00:35.639Z,100804.44
2022-10-26T09:05:44.450Z,100800.63
2022-10-26T09:11:07.487Z,100805.75
2022-10-26T09:16:31.143Z,100823.28
2022-10-26T09:21:48.734Z,100826.03
2022-10-26T09:26:55.120Z,100833.00
2022-10-26T09:32:00.370Z,100834.91
2022-10-26T09:37:15.476Z,100851.41
2022-10-26T09:42:24.961Z,100858.28
2022-10-26T09:47:38.102Z,100870.00
2022-10-26T09:52:39.880Z,100886.84
2022-10-26T09:57:47.832Z,100886.84
2022-10-26T10:02:58.173Z,100897.06
2022-10-26T10:08:18.373Z,100886.31
2022-10-26T10:13:23.875Z,100900.91
2022-10-26T10:18:25.979Z,100905.25
2022-10-26T10:23:31.410Z,100908.00
2022-10-26T10:28:34.224Z,100928.44
2022-10-26T10:33:42.905Z,100918.53
2022-10-26T10:38:46.804Z,100940.03
2022-10-26T10:44:05.839Z,100945.31
2022-10-26T10:49:20.504Z,100955.75
2022-10-26T10:54:34.055Z,100951.25
2022-10-26T10:59:46.490Z,100945.84
2022-10-26T11:04:53.991Z,100949.78
2022-10-26T11:10:00.713Z,100959.75
2022-10-26T11:15:17.099Z,100967.59
2022-10-26T11:20:22.895Z,100975.22
2022-10-26T11:25:31.276Z,100981.53
2022-10-26T11:30:36.843Z,100979.28
2022-10-26T11:35:47.441Z,100972.94
2022-10-26T11:41:23.328Z,100989.63
2022-10-26T11:47:12.447Z,100984.13
2022-10-26T11:52:20.664Z,100990.94
2022-10-26T11:57:29.174Z,100986.03
2022-10-26T12:02:36.323Z,100981.03
2022-10-26T12:07:40.638Z,100986.69
2022-10-26T12:12:50.223Z,100991.34
2022-10-26T12:17:59.834Z,101004.63
2022-10-26T12:23:05.272Z,101002.97
2022-10-26T12:28:40.746Z,101014.94
2022-10-26T12:33:51.935Z,101020.34
2022-10-26T12:38:57.990Z,101024.06
2022-10-26T12:44:24.164Z,101030.53
2022-10-26T12:50:04.790Z,101033.63
2022-10-26T12:55:12.993Z,101039.22
2022-10-26T13:00:23.810Z,101039.38
2022-10-26T13:05:50.426Z,101047.22
2022-10-26T13:11:05.796Z,101056.78
2022-10-26T13:16:11.856Z,101055.91
2022-10-26T13:21:16.760Z,101069.34
2022-10-26T13:26:20.485Z,101064.41
2022-10-26T13:31:31.699Z,101064.41
2022-10-26T13:36:39.329Z,101069.75
2022-10-26T13:41:45.007Z,101066.41
2022-10-26T13:46:53.456Z,101077.25
2022-10-26T13:51:56.454Z,101084.84
2022-10-26T13:57:13.718Z,101071.31
2022-10-26T14:02:19.875Z,101066.69
2022-10-26T14:07:26.080Z,101079.41
2022-10-26T14:12:31.368Z,101080.19
2022-10-26T14:17:33.584Z,101089.03
2022-10-26T14:22:35.581Z,101085.50
2022-10-26T14:27:39.695Z,101102.47
2022-10-26T14:32:41.598Z,101102.81
2022-10-26T14:38:12.242Z,101100.66
2022-10-26T14:43:19.288Z,101101.03
2022-10-26T14:48:35.548Z,101110.22
2022-10-26T14:53:40.969Z,101114.94
2022-10-26T14:58:43.130Z,101125.53
2022-10-26T15:03:45.694Z,101127.94
2022-10-26T15:09:03.381Z,101134.66
2022-10-26T15:14:12.670Z,101135.88
2022-10-26T15:19:24.019Z,101148.28
2022-10-26T15:24:39.165Z,101147.66
2022-10-26T15:29:42.971Z,101158.19
2022-10-26T15:34:50.046Z,101166.25
2022-10-26T15:39:51.978Z,101177.00
2022-10-26T15:44:53.758Z,101192.09
2022-10-26T15:49:55.778Z,101197.63
2022-10-26T15:54:57.635Z,101205.00
2022-10-26T15:59:59.732Z,101218.47
2022-10-26T16:05:01.766Z,101211.38
2022-10-26T16:10:03.804Z,101218.69
2022-10-26T16:15:06.432Z,101227.22
2022-10-26T16:20:19.880Z,101236.19
2022-10-26T16:25:26.044Z,101237.34
2022-10-26T16:30:30.791Z,101257.53
2022-10-26T16:35:32.767Z,101264.75
2022-10-26T16:40:34.509Z,101263.19
2022-10-26T16:45:39.850Z,101274.72
2022-10-26T16:50:41.703Z,101280.44
2022-10-26T16:55:44.461Z,101286.56
2022-10-26T17:00:46.243Z,101285.25
2022-10-26T17:05:48.003Z,101297.72
2022-10-26T17:10:49.727Z,101306.75
2022-10-26T17:15:51.517Z,101312.00
2022-10-26T17:20:53.340Z,101327.53
2022-10-26T17:25:55.221Z,101330.38
2022-10-26T17:31:11.726Z,101334.53
2022-10-26T17:36:16.847Z,101338.88
2022-10-26T17:41:20.140Z,101342.16
2022-10-26T17:46:24.583Z,101350.47
2022-10-26T17:51:27.816Z,101371.03
2022-10-26T17:56:32.445Z,101376.44
2022-10-26T18:01:34.323Z,101383.81
2022-10-26T18:06:36.355Z,101381.69
2022-10-26T18:11:38.157Z,101386.94
2022-10-26T18:16:40.194Z,101397.72
2022-10-26T18:21:41.966Z,101404.06
2022-10-26T18:26:43.744Z,101402.88
2022-10-26T18:31:46.217Z,101408.69
2022-10-26T18:36:47.889Z,101421.78
2022-10-26T18:41:49.672Z,101432.81
2022-10-26T18:46:52.443Z,101428.28
2022-10-26T18:51:54.444Z,101443.25
2022-10-26T18:56:56.717Z,101440.16
2022-10-26T19:01:58.579Z,101443.50
2022-10-26T19:07:01.825Z,101441.44
2022-10-26T19:12:04.549Z,101452.13
2022-10-26T19:17:06.382Z,101456.59
2022-10-26T19:22:08.118Z,101460.97
2022-10-26T19:27:10.018Z,101454.53
2022-10-26T19:32:12.666Z,101463.44
2022-10-26T19:37:14.551Z,101452.97
2022-10-26T19:42:16.586Z,101460.38
2022-10-26T19:47:18.355Z,101464.28
2022-10-26T19:52:20.454Z,101476.06
2022-10-26T19:57:25.446Z,101465.41
2022-10-26T20:02:28.076Z,101476.78
2022-10-26T20:07:29.976Z,101483.75
2022-10-26T20:12:31.974Z,101494.59
2022-10-26T20:17:34.882Z,101503.13
2022-10-26T20:22:36.785Z,101500.75
2022-10-26T20:27:41.874Z,101505.38
2022-10-26T20:32:43.649Z,101505.22
2022-10-26T20:37:45.710Z,101510.72
2022-10-26T20:48:12.150Z,101520.44
2022-10-26T20:53:26.051Z,101522.25
2022-10-26T20:58:56.606Z,101523.94
2022-10-26T21:04:00.718Z,101530.78
2022-10-26T21:09:02.614Z,101530.13
2022-10-26T21:14:05.574Z,101527.50
2022-10-26T21:19:08.708Z,101543.66
2022-10-26T21:24:10.470Z,101541.84
2022-10-26T21:29:12.492Z,101553.28
2022-10-26T21:34:14.529Z,101547.81
2022-10-26T21:39:16.281Z,101552.13
2022-10-26T21:44:40.575Z,101553.31
2022-10-26T21:54:43.429Z,101541.94
2022-10-26T21:59:45.245Z,101552.44
2022-10-26T22:04:46.983Z,101556.16
2022-10-26T22:10:07.526Z,101557.88
2022-10-26T22:15:10.952Z,101544.25
2022-10-26T22:20:12.881Z,101537.47
2022-10-26T22:25:14.809Z,101543.72
2022-10-26T22:30:16.682Z,101542.63
2022-10-26T22:35:28.942Z,101531.34
2022-10-26T22:40:31.616Z,101542.88
2022-10-26T22:45:33.605Z,101531.16
2022-10-26T22:50:38.025Z,101538.38
2022-10-26T22:55:42.667Z,101545.78
2022-10-26T23:00:44.582Z,101543.72
2022-10-26T23:05:49.620Z,101535.81
2022-10-26T23:10:51.848Z,101537.75
2022-10-26T23:15:53.851Z,101539.00
2022-10-26T23:20:55.864Z,101542.09
2022-10-26T23:26:10.133Z,101540.38
2022-10-26T23:31:16.578Z,101545.72
2022-10-26T23:36:18.999Z,101548.81
2022-10-26T23:41:21.019Z,101535.66
2022-10-26T23:46:22.881Z,101543.59
2022-10-26T23:51:24.740Z,101540.13
2022-10-26T23:56:26.785Z,101544.34
